createdAt,value
2023-04-16T00:01:09.331Z,8.74
2023-04-16T00:03:37.845Z,8.72
2023-04-16T00:06:05.848Z,8.72
2023-04-16T00:08:33.416Z,8.69
2023-04-16T00:11:01.695Z,8.70
2023-04-16T00:13:29.425Z,8.62
2023-04-16T00:15:57.007Z,8.58
2023-04-16T00:18:25.022Z,8.41
2023-04-16T00:20:53.016Z,8.24
2023-04-16T00:23:21.042Z,8.27
2023-04-16T00:25:49.003Z,8.30
2023-04-16T00:28:16.880Z,8.15
2023-04-16T00:30:44.807Z,8.20
2023-04-16T00:33:12.705Z,8.10
2023-04-16T00:35:40.659Z,8.09
2023-04-16T00:38:08.538Z,8.08
2023-04-16T00:40:41.370Z,7.98
2023-04-16T00:43:09.088Z,7.94
2023-04-16T00:45:37.163Z,7.86
2023-04-16T00:48:05.305Z,7.93
2023-04-16T00:50:33.322Z,7.87
2023-04-16T00:53:01.768Z,7.83
2023-04-16T00:55:29.552Z,7.87
2023-04-16T00:57:57.221Z,7.74
2023-04-16T01:00:25.076Z,7.78
2023-04-16T01:02:54.082Z,7.84
2023-04-16T01:05:21.776Z,7.79
2023-04-16T01:07:50.732Z,7.77
2023-04-16T01:10:18.481Z,7.56
2023-04-16T01:12:46.065Z,7.60
2023-04-16T01:15:13.992Z,7.72
2023-04-16T01:17:44.674Z,7.64
2023-04-16T01:20:12.300Z,7.70
2023-04-16T01:22:40.449Z,7.67
2023-04-16T01:25:08.141Z,7.72
2023-04-16T01:27:35.872Z,7.73
2023-04-16T01:30:05.015Z,7.70
2023-04-16T01:32:33.705Z,7.74
2023-04-16T01:35:01.355Z,7.67
2023-04-16T01:37:29.599Z,7.67
2023-04-16T01:39:57.195Z,7.72
2023-04-16T01:42:25.091Z,7.74
2023-04-16T01:44:53.290Z,7.55
2023-04-16T01:47:21.496Z,7.58
2023-04-16T01:49:49.259Z,7.54
2023-04-16T01:52:17.528Z,7.60
2023-04-16T01:54:45.070Z,7.44
2023-04-16T01:57:12.846Z,7.54
2023-04-16T01:59:40.804Z,7.46
2023-04-16T02:02:10.789Z,7.39
2023-04-16T02:04:44.616Z,7.49
2023-04-16T02:07:12.811Z,7.38
2023-04-16T02:09:41.364Z,7.46
2023-04-16T02:12:09.799Z,7.46
2023-04-16T02:14:37.519Z,7.55
2023-04-16T02:17:05.562Z,7.42
2023-04-16T02:19:33.557Z,7.38
2023-04-16T02:22:01.518Z,7.42
2023-04-16T02:24:29.624Z,7.42
2023-04-16T02:26:57.658Z,7.45
2023-04-16T02:29:25.572Z,7.30
2023-04-16T02:31:54.793Z,7.44
2023-04-16T02:34:22.697Z,7.40
2023-04-16T02:36:50.947Z,7.47
2023-04-16T02:39:18.931Z,7.37
2023-04-16T02:41:46.593Z,7.39
2023-04-16T02:44:15.207Z,7.35
2023-04-16T02:46:42.889Z,7.28
2023-04-16T02:49:10.676Z,7.33
2023-04-16T02:51:38.817Z,7.24
2023-04-16T02:54:06.481Z,7.31
2023-04-16T02:56:34.182Z,7.34
2023-04-16T02:59:02.197Z,7.24
2023-04-16T03:01:30.052Z,7.12
2023-04-16T03:03:57.719Z,7.31
2023-04-16T03:06:25.865Z,7.17
2023-04-16T03:08:53.792Z,7.14
2023-04-16T03:11:21.461Z,7.21
2023-04-16T03:13:49.427Z,7.24
2023-04-16T03:16:17.080Z,7.12
2023-04-16T03:18:44.820Z,7.07
2023-04-16T03:21:12.929Z,7.24
2023-04-16T03:23:40.842Z,7.25
2023-04-16T03:26:08.442Z,7.24
2023-04-16T03:28:36.437Z,7.28
2023-04-16T03:31:04.605Z,7.27
2023-04-16T03:33:32.453Z,7.36
2023-04-16T03:36:00.685Z,7.44
2023-04-16T03:38:29.136Z,7.26
2023-04-16T03:40:56.815Z,7.41
2023-04-16T03:43:24.926Z,7.47
2023-04-16T03:45:53.028Z,7.47
2023-04-16T03:48:21.587Z,7.51
2023-04-16T03:50:49.931Z,7.49
2023-04-16T03:53:17.854Z,7.43
2023-04-16T03:55:49.887Z,7.53
2023-04-16T03:58:18.944Z,7.55
2023-04-16T04:00:48.672Z,7.64
2023-04-16T04:03:17.174Z,7.57
2023-04-16T04:05:45.206Z,7.57
2023-04-16T04:08:14.078Z,7.45
2023-04-16T04:10:42.273Z,7.46
2023-04-16T04:13:11.576Z,7.52
2023-04-16T04:15:39.272Z,7.44
2023-04-16T04:18:07.165Z,7.59
2023-04-16T04:20:34.921Z,7.57
2023-04-16T04:23:03.268Z,7.67
2023-04-16T04:25:31.283Z,7.63
2023-04-16T04:27:59.060Z,7.74
2023-04-16T04:30:26.749Z,7.88
2023-04-16T04:32:55.269Z,7.91
2023-04-16T04:35:22.967Z,7.88
2023-04-16T04:37:51.016Z,7.85
2023-04-16T04:40:19.227Z,7.82
2023-04-16T04:42:46.963Z,7.85
2023-04-16T04:45:14.685Z,7.84
2023-04-16T04:47:42.813Z,7.76
2023-04-16T04:50:11.357Z,7.91
2023-04-16T04:52:39.818Z,7.93
2023-04-16T04:55:08.143Z,7.85
2023-04-16T04:57:36.078Z,7.88
2023-04-16T05:00:04.080Z,7.87
2023-04-16T05:02:32.947Z,7.85
2023-04-16T05:05:01.004Z,8.01
2023-04-16T05:07:28.573Z,7.97
2023-04-16T05:09:56.667Z,8.21
2023-04-16T05:12:24.441Z,8.15
2023-04-16T05:14:52.241Z,8.24
2023-04-16T05:17:20.125Z,8.28
2023-04-16T05:19:47.851Z,8.32
2023-04-16T05:22:15.545Z,8.43
2023-04-16T05:24:43.504Z,8.53
2023-04-16T05:27:11.096Z,8.46
2023-04-16T05:29:38.775Z,8.63
2023-04-16T05:32:07.165Z,8.84
2023-04-16T05:34:34.898Z,8.80
2023-04-16T05:37:02.606Z,8.81
2023-04-16T05:39:30.686Z,9.01
2023-04-16T05:41:58.387Z,9.04
2023-04-16T05:44:26.017Z,9.11
2023-04-16T05:46:54.278Z,9.15
2023-04-16T05:49:21.898Z,9.36
2023-04-16T05:51:50.820Z,9.50
2023-04-16T05:54:19.081Z,9.60
2023-04-16T05:56:46.765Z,9.63
2023-04-16T05:59:14.638Z,9.61
2023-04-16T06:01:50.704Z,9.83
2023-04-16T06:04:19.047Z,9.83
2023-04-16T06:06:46.775Z,9.86
2023-04-16T06:09:14.495Z,9.97
2023-04-16T06:11:42.507Z,10.01
2023-04-16T06:14:11.343Z,10.12
2023-04-16T06:16:39.006Z,10.30
2023-04-16T06:19:07.842Z,10.29
2023-04-16T06:21:36.005Z,10.36
2023-04-16T06:24:03.731Z,10.55
2023-04-16T06:26:31.692Z,10.76
2023-04-16T06:28:59.748Z,10.70
2023-04-16T06:31:27.884Z,10.74
2023-04-16T06:33:56.045Z,10.62
2023-04-16T06:36:23.770Z,10.71
2023-04-16T06:38:51.911Z,10.90
2023-04-16T06:41:20.287Z,11.04
2023-04-16T06:43:48.233Z,11.07
2023-04-16T06:46:16.015Z,11.18
2023-04-16T06:48:44.273Z,10.96
2023-04-16T06:51:12.031Z,11.01
2023-04-16T06:53:39.669Z,11.05
2023-04-16T06:56:07.989Z,11.32
2023-04-16T06:58:35.967Z,11.35
2023-04-16T07:01:03.721Z,11.48
2023-04-16T07:03:33.883Z,11.62
2023-04-16T07:06:01.956Z,11.38
2023-04-16T07:08:29.883Z,11.53
2023-04-16T07:10:57.971Z,11.63
2023-04-16T07:13:25.682Z,11.67
2023-04-16T07:15:54.534Z,11.94
2023-04-16T07:18:22.746Z,11.91
2023-04-16T07:20:50.900Z,12.12
2023-04-16T07:23:18.866Z,12.03
2023-04-16T07:25:46.747Z,12.22
2023-04-16T07:28:14.403Z,12.26
2023-04-16T07:30:43.042Z,12.53
2023-04-16T07:33:10.983Z,12.66
2023-04-16T07:35:38.682Z,12.95
2023-04-16T07:38:06.331Z,12.83
2023-04-16T07:40:35.244Z,12.73
2023-04-16T07:43:02.908Z,13.08
2023-04-16T07:45:30.594Z,13.13
2023-04-16T07:47:58.486Z,13.12
2023-04-16T07:50:26.210Z,13.04
2023-04-16T07:52:54.062Z,13.19
2023-04-16T07:55:21.989Z,13.24
2023-04-16T07:57:49.806Z,13.31
2023-04-16T08:00:17.634Z,13.50
2023-04-16T08:02:45.742Z,13.67
2023-04-16T08:05:13.489Z,13.82
2023-04-16T08:07:41.190Z,13.75
2023-04-16T08:10:09.382Z,13.79
2023-04-16T08:12:37.225Z,14.12
2023-04-16T08:15:05.819Z,14.00
2023-04-16T08:17:33.796Z,14.43
2023-04-16T08:20:01.538Z,14.35
2023-04-16T08:22:29.402Z,14.47
2023-04-16T08:24:57.336Z,14.39
2023-04-16T08:27:25.018Z,14.23
2023-04-16T08:29:52.639Z,14.46
2023-04-16T08:32:20.743Z,14.52
2023-04-16T08:34:48.432Z,14.54
2023-04-16T08:37:16.060Z,14.55
2023-04-16T08:39:43.960Z,14.46
2023-04-16T08:42:31.708Z,14.63
2023-04-16T08:45:14.053Z,14.74
2023-04-16T08:47:43.923Z,14.74
2023-04-16T08:50:20.052Z,14.41
2023-04-16T08:52:59.923Z,14.42
2023-04-16T08:55:37.576Z,14.60
2023-04-16T08:58:16.028Z,14.46
2023-04-16T09:00:44.234Z,14.48
2023-04-16T09:03:16.238Z,14.62
2023-04-16T09:05:44.815Z,14.61
2023-04-16T09:08:12.658Z,14.13
2023-04-16T09:10:40.416Z,14.20
2023-04-16T09:13:10.314Z,14.65
2023-04-16T09:15:39.457Z,14.48
2023-04-16T09:18:07.141Z,14.46
2023-04-16T09:20:35.034Z,14.58
2023-04-16T09:23:02.735Z,14.45
2023-04-16T09:25:34.218Z,14.57
2023-04-16T09:28:02.184Z,14.47
2023-04-16T09:30:29.938Z,14.67
2023-04-16T09:33:34.984Z,14.72
2023-04-16T09:36:03.092Z,14.78
2023-04-16T09:38:46.613Z,14.85
2023-04-16T09:41:15.225Z,14.99
2023-04-16T09:43:55.678Z,14.95
2023-04-16T09:46:25.195Z,15.13
2023-04-16T09:48:52.995Z,14.92
2023-04-16T09:51:21.062Z,14.67
2023-04-16T09:53:52.257Z,14.82
2023-04-16T09:56:23.848Z,15.15
2023-04-16T09:58:56.974Z,14.86
2023-04-16T10:01:24.631Z,14.83
2023-04-16T10:03:54.843Z,15.05
2023-04-16T10:06:23.917Z,15.05
2023-04-16T10:08:53.740Z,15.22
2023-04-16T10:11:21.764Z,15.16
2023-04-16T10:13:50.369Z,15.31
2023-04-16T10:16:18.385Z,15.44
2023-04-16T10:18:46.981Z,15.62
2023-04-16T10:21:15.975Z,15.57
2023-04-16T10:23:44.274Z,15.73
2023-04-16T10:26:12.071Z,16.11
2023-04-16T10:28:40.676Z,16.56
2023-04-16T10:31:09.199Z,16.80
2023-04-16T10:33:39.976Z,17.23
2023-04-16T10:36:08.088Z,17.07
2023-04-16T10:38:38.797Z,17.36
2023-04-16T10:41:07.208Z,17.27
2023-04-16T10:43:43.881Z,17.18
2023-04-16T10:46:21.666Z,16.96
2023-04-16T10:48:51.883Z,17.33
2023-04-16T10:51:28.107Z,17.36
2023-04-16T10:53:58.447Z,17.88
2023-04-16T10:56:26.703Z,17.81
2023-04-16T10:58:54.831Z,17.74
2023-04-16T11:01:36.350Z,18.15
2023-04-16T11:04:19.414Z,17.96
2023-04-16T11:07:12.264Z,18.09
2023-04-16T11:09:55.093Z,18.79
2023-04-16T11:12:24.497Z,18.53
2023-04-16T11:14:53.989Z,18.16
2023-04-16T11:17:21.930Z,18.37
2023-04-16T11:19:50.623Z,18.17
2023-04-16T11:22:21.424Z,18.60
2023-04-16T11:24:56.436Z,18.80
2023-04-16T11:27:24.633Z,18.02
2023-04-16T11:30:05.583Z,17.89
2023-04-16T11:32:34.831Z,17.75
2023-04-16T11:35:08.315Z,17.86
2023-04-16T11:37:37.469Z,18.02
2023-04-16T11:40:06.492Z,18.42
2023-04-16T11:42:39.205Z,18.47
2023-04-16T11:45:08.892Z,18.37
2023-04-16T11:47:50.584Z,18.41
2023-04-16T11:50:26.061Z,18.23
2023-04-16T11:52:55.385Z,18.23
2023-04-16T11:55:24.256Z,18.24
2023-04-16T11:57:52.190Z,18.31
2023-04-16T12:00:24.305Z,18.14
2023-04-16T12:02:54.102Z,18.15
2023-04-16T12:05:39.503Z,17.93
2023-04-16T12:08:10.192Z,17.95
2023-04-16T12:10:58.112Z,17.66
2023-04-16T12:13:26.234Z,17.80
2023-04-16T12:15:56.922Z,18.17
2023-04-16T12:18:25.927Z,18.41
2023-04-16T12:20:57.306Z,18.37
2023-04-16T12:23:33.552Z,19.00
2023-04-16T12:26:08.273Z,19.06
2023-04-16T12:28:36.952Z,19.25
2023-04-16T12:31:07.223Z,18.98
2023-04-16T12:33:34.994Z,19.42
2023-04-16T12:36:17.357Z,19.30
2023-04-16T12:38:45.541Z,20.14
2023-04-16T12:41:13.209Z,20.17
2023-04-16T12:43:40.918Z,20.21
2023-04-16T12:46:08.904Z,20.53
2023-04-16T12:48:36.531Z,20.50
2023-04-16T12:51:04.451Z,21.05
2023-04-16T12:53:32.393Z,21.35
2023-04-16T12:56:00.242Z,20.96
2023-04-16T12:58:28.140Z,21.32
2023-04-16T13:00:56.530Z,21.46
2023-04-16T13:03:24.569Z,20.57
2023-04-16T13:05:52.934Z,20.60
2023-04-16T13:08:21.127Z,21.00
2023-04-16T13:10:48.974Z,20.84
2023-04-16T13:13:16.972Z,21.44
2023-04-16T13:15:45.135Z,20.76
2023-04-16T13:18:12.880Z,20.59
2023-04-16T13:20:40.768Z,20.62
2023-04-16T13:23:08.868Z,20.91
2023-04-16T13:25:36.919Z,20.93
2023-04-16T13:28:05.089Z,20.95
2023-04-16T13:30:34.435Z,20.23
2023-04-16T13:33:02.344Z,20.08
2023-04-16T13:35:30.730Z,20.75
2023-04-16T13:37:58.614Z,20.44
2023-04-16T13:40:26.468Z,19.95
2023-04-16T13:42:54.417Z,20.27
2023-04-16T13:45:22.454Z,20.13
2023-04-16T13:47:50.270Z,19.80
2023-04-16T13:50:18.998Z,20.32
2023-04-16T13:52:46.940Z,20.13
2023-04-16T13:55:14.720Z,20.13
2023-04-16T13:57:42.533Z,21.28
2023-04-16T14:00:13.256Z,21.32
2023-04-16T14:02:42.052Z,21.10
2023-04-16T14:05:10.011Z,20.87
2023-04-16T14:07:37.948Z,20.81
2023-04-16T14:10:06.484Z,21.55
2023-04-16T14:12:34.596Z,21.39
2023-04-16T14:15:06.578Z,21.75
2023-04-16T14:17:35.174Z,21.20
2023-04-16T14:20:04.146Z,20.88
2023-04-16T14:22:31.858Z,20.59
2023-04-16T14:25:00.047Z,21.21
2023-04-16T14:27:28.513Z,21.25
2023-04-16T14:29:56.613Z,21.14
2023-04-16T14:32:24.918Z,21.15
2023-04-16T14:34:52.615Z,20.35
2023-04-16T14:37:20.340Z,20.88
2023-04-16T14:39:48.440Z,21.27
2023-04-16T14:42:16.270Z,20.37
2023-04-16T14:44:43.901Z,20.73
2023-04-16T14:47:11.882Z,20.04
2023-04-16T14:49:39.753Z,20.07
2023-04-16T14:52:10.033Z,20.05
2023-04-16T14:54:40.890Z,20.12
2023-04-16T14:57:08.541Z,20.18
2023-04-16T14:59:36.378Z,20.29
2023-04-16T15:02:04.791Z,19.93
2023-04-16T15:04:34.417Z,19.36
2023-04-16T15:07:02.226Z,19.24
2023-04-16T15:09:34.337Z,19.42
2023-04-16T15:12:02.657Z,19.89
2023-04-16T15:14:31.002Z,19.75
2023-04-16T15:16:58.771Z,19.72
2023-04-16T15:19:29.905Z,19.59
2023-04-16T15:21:59.127Z,19.45
2023-04-16T15:24:26.887Z,19.20
2023-04-16T15:26:56.028Z,19.26
2023-04-16T15:29:24.182Z,19.83
2023-04-16T15:31:52.205Z,19.85
2023-04-16T15:34:19.934Z,19.90
2023-04-16T15:36:48.015Z,19.97
2023-04-16T15:39:16.036Z,19.50
2023-04-16T15:41:59.852Z,19.83
2023-04-16T15:44:30.254Z,19.53
2023-04-16T15:46:58.198Z,19.15
2023-04-16T15:49:26.301Z,19.35
2023-04-16T15:51:55.373Z,19.32
2023-04-16T15:54:23.747Z,19.24
2023-04-16T15:56:51.505Z,19.05
2023-04-16T15:59:19.734Z,18.68
2023-04-16T16:01:47.949Z,18.66
2023-04-16T16:04:15.981Z,18.93
2023-04-16T16:06:44.084Z,18.93
2023-04-16T16:09:12.486Z,19.03
2023-04-16T16:11:41.089Z,18.80
2023-04-16T16:14:09.170Z,18.65
2023-04-16T16:16:37.031Z,18.40
2023-04-16T16:19:05.035Z,18.23
2023-04-16T16:21:32.693Z,18.28
2023-04-16T16:24:00.597Z,18.26
2023-04-16T16:26:28.836Z,18.29
2023-04-16T16:28:57.390Z,18.44
2023-04-16T16:31:25.134Z,17.98
2023-04-16T16:33:53.300Z,17.62
2023-04-16T16:36:21.613Z,17.74
2023-04-16T16:38:50.763Z,17.83
2023-04-16T16:41:18.816Z,17.49
2023-04-16T16:43:46.686Z,17.57
2023-04-16T16:46:14.616Z,17.68
2023-04-16T16:48:42.582Z,17.66
2023-04-16T16:51:10.360Z,17.47
2023-04-16T16:53:38.349Z,17.35
2023-04-16T16:56:06.752Z,17.31
2023-04-16T16:58:35.113Z,17.09
2023-04-16T17:01:03.124Z,17.16
2023-04-16T17:03:31.580Z,17.21
2023-04-16T17:05:59.252Z,17.22
2023-04-16T17:08:27.125Z,17.21
2023-04-16T17:10:55.745Z,17.08
2023-04-16T17:13:23.725Z,16.70
2023-04-16T17:15:51.601Z,16.78
2023-04-16T17:18:19.549Z,16.92
2023-04-16T17:20:47.457Z,16.46
2023-04-16T17:23:15.980Z,16.30
2023-04-16T17:25:44.357Z,16.64
2023-04-16T17:28:12.644Z,16.65
2023-04-16T17:30:40.709Z,16.41
2023-04-16T17:33:09.270Z,16.31
2023-04-16T17:35:39.899Z,16.19
2023-04-16T17:38:08.134Z,16.13
2023-04-16T17:40:35.980Z,16.30
2023-04-16T17:43:04.380Z,16.22
2023-04-16T17:45:33.293Z,16.39
2023-04-16T17:48:01.356Z,16.30
2023-04-16T17:50:29.884Z,16.25
2023-04-16T17:52:59.376Z,15.88
2023-04-16T17:55:27.288Z,15.98
2023-04-16T17:57:55.824Z,15.69
2023-04-16T18:00:24.168Z,15.70
2023-04-16T18:02:52.373Z,15.65
2023-04-16T18:05:20.441Z,15.56
2023-04-16T18:07:49.068Z,15.49
2023-04-16T18:10:17.051Z,15.52
2023-04-16T18:12:45.235Z,15.29
2023-04-16T18:15:13.235Z,15.25
2023-04-16T18:17:41.519Z,15.24
2023-04-16T18:20:11.990Z,15.34
2023-04-16T18:22:40.046Z,15.24
2023-04-16T18:25:08.299Z,15.14
2023-04-16T18:27:36.284Z,14.99
2023-04-16T18:30:05.011Z,15.05
2023-04-16T18:32:33.677Z,14.95
2023-04-16T18:35:01.906Z,15.10
2023-04-16T18:37:29.745Z,15.05
2023-04-16T18:39:58.263Z,15.14
2023-04-16T18:42:29.141Z,15.05
2023-04-16T18:44:59.310Z,14.97
2023-04-16T18:47:28.664Z,14.96
2023-04-16T18:49:57.404Z,14.95
2023-04-16T18:52:25.766Z,14.76
2023-04-16T18:54:54.038Z,14.73
2023-04-16T18:57:22.041Z,14.68
2023-04-16T18:59:50.542Z,14.70
2023-04-16T19:02:18.970Z,14.71
2023-04-16T19:04:46.999Z,14.69
2023-04-16T19:07:15.287Z,14.57
2023-04-16T19:09:43.672Z,14.61
2023-04-16T19:12:12.206Z,14.52
2023-04-16T19:14:40.961Z,14.39
2023-04-16T19:17:08.977Z,14.33
2023-04-16T19:19:37.339Z,14.32
2023-04-16T19:22:06.803Z,14.14
2023-04-16T19:24:35.097Z,14.24
2023-04-16T19:27:03.171Z,14.14
2023-04-16T19:29:35.399Z,14.07
2023-04-16T19:32:03.789Z,14.16
2023-04-16T19:34:31.982Z,14.03
2023-04-16T19:37:00.752Z,13.94
2023-04-16T19:39:28.733Z,13.93
2023-04-16T19:41:58.765Z,13.91
2023-04-16T19:44:27.242Z,13.82
2023-04-16T19:46:55.440Z,13.66
2023-04-16T19:49:23.841Z,13.79
2023-04-16T19:51:52.697Z,13.72
2023-04-16T19:54:20.945Z,13.66
2023-04-16T19:56:49.971Z,13.72
2023-04-16T19:59:17.894Z,13.75
2023-04-16T20:01:46.133Z,13.74
2023-04-16T20:04:14.383Z,13.61
2023-04-16T20:06:42.080Z,13.64
2023-04-16T20:09:10.050Z,13.74
2023-04-16T20:11:38.694Z,13.60
2023-04-16T20:14:06.860Z,13.58
2023-04-16T20:16:35.250Z,13.69
2023-04-16T20:19:08.746Z,13.60
2023-04-16T20:21:37.069Z,13.59
2023-04-16T20:24:05.498Z,13.64
2023-04-16T20:26:33.481Z,13.74
2023-04-16T20:29:01.296Z,13.70
2023-04-16T20:31:29.447Z,13.75
2023-04-16T20:33:57.471Z,13.74
2023-04-16T20:36:25.524Z,13.74
2023-04-16T20:38:54.144Z,13.61
2023-04-16T20:41:21.865Z,13.64
2023-04-16T20:43:49.691Z,13.52
2023-04-16T20:46:17.837Z,13.56
2023-04-16T20:48:45.784Z,13.66
2023-04-16T20:51:13.453Z,13.76
2023-04-16T20:53:41.431Z,13.58
2023-04-16T20:56:09.174Z,13.54
2023-04-16T20:58:37.204Z,13.55
2023-04-16T21:01:05.191Z,13.77
2023-04-16T21:03:32.961Z,13.73
2023-04-16T21:06:00.622Z,13.69
2023-04-16T21:08:28.588Z,13.61
2023-04-16T21:10:56.459Z,13.71
2023-04-16T21:13:24.098Z,13.61
2023-04-16T21:15:52.254Z,13.61
2023-04-16T21:18:20.034Z,13.62
2023-04-16T21:20:47.733Z,13.72
2023-04-16T21:23:15.734Z,13.60
2023-04-16T21:25:43.273Z,13.64
2023-04-16T21:28:10.999Z,13.51
2023-04-16T21:30:38.989Z,13.60
2023-04-16T21:33:07.271Z,13.52
2023-04-16T21:35:34.888Z,13.60
2023-04-16T21:38:02.825Z,13.34
2023-04-16T21:40:30.519Z,13.43
2023-04-16T21:42:58.143Z,13.51
2023-04-16T21:45:26.022Z,13.47
2023-04-16T21:47:53.977Z,13.48
2023-04-16T21:50:21.629Z,13.41
2023-04-16T21:52:49.921Z,13.47
2023-04-16T21:55:17.645Z,13.35
2023-04-16T21:57:45.284Z,13.30
2023-04-16T22:00:13.546Z,13.28
2023-04-16T22:02:42.108Z,13.31
2023-04-16T22:05:10.388Z,13.36
2023-04-16T22:07:38.017Z,13.27
2023-04-16T22:10:06.305Z,13.44
2023-04-16T22:12:34.661Z,13.23
2023-04-16T22:15:03.172Z,13.18
2023-04-16T22:17:31.133Z,13.17
2023-04-16T22:19:59.158Z,13.21
2023-04-16T22:22:26.791Z,13.18
2023-04-16T22:24:54.597Z,13.23
2023-04-16T22:27:22.681Z,13.17
2023-04-16T22:29:50.382Z,13.23
2023-04-16T22:32:18.595Z,13.11
2023-04-16T22:34:46.595Z,13.22
2023-04-16T22:37:14.206Z,13.15
2023-04-16T22:39:41.895Z,13.24
2023-04-16T22:42:09.884Z,13.13
2023-04-16T22:44:37.567Z,13.07
2023-04-16T22:47:05.192Z,13.12
2023-04-16T22:49:33.339Z,13.19
2023-04-16T22:52:01.614Z,13.11
2023-04-16T22:54:33.155Z,13.05
2023-04-16T22:57:01.169Z,13.05
2023-04-16T22:59:28.879Z,13.17
2023-04-16T23:01:57.011Z,13.14
2023-04-16T23:04:25.192Z,13.14
2023-04-16T23:06:52.994Z,13.16
2023-04-16T23:09:20.854Z,13.07
2023-04-16T23:11:48.851Z,13.10
2023-04-16T23:14:16.956Z,12.93
2023-04-16T23:16:44.742Z,13.15
2023-04-16T23:19:13.594Z,13.06
2023-04-16T23:21:41.614Z,13.15
2023-04-16T23:24:09.467Z,13.10
2023-04-16T23:26:37.471Z,13.00
2023-04-16T23:29:06.269Z,13.01
2023-04-16T23:31:34.123Z,12.98
2023-04-16T23:34:02.121Z,13.06
2023-04-16T23:36:29.822Z,13.10
2023-04-16T23:38:57.657Z,13.12
2023-04-16T23:41:25.617Z,12.91
2023-04-16T23:43:53.406Z,13.08
2023-04-16T23:46:21.125Z,13.15
2023-04-16T23:48:49.356Z,13.11
2023-04-16T23:51:17.212Z,13.03
2023-04-16T23:53:45.169Z,13.02
2023-04-16T23:56:13.169Z,12.95
2023-04-16T23:58:40.773Z,13.01
